Time;durP1;ratioP1;P1;durP2;ratioP2;P2;SDS_P1;SDS_P2;PMS_P1;PMS_P2;Temp;Humidity;BMP_temperature;BMP_pressure;BME280_temperature;BME280_humidity;BME280_pressure;Samples;Min_cycle;Max_cycle;Signal;HPM_P1;HPM_P2
2022/11/11 00:01:37;;;;;;;49.38;31.58;;;9.00;99.90;;;;;;5016191;28;20247;-87
2022/11/11 00:04:03;;;;;;;48.10;30.10;;;9.00;99.90;;;;;;4999338;28;20029;-86
2022/11/11 00:06:29;;;;;;;42.13;28.10;;;9.00;99.90;;;;;;4999132;28;20022;-87
2022/11/11 00:08:55;;;;;;;47.42;29.73;;;9.00;99.90;;;;;;5018503;28;20017;-88
2022/11/11 00:11:20;;;;;;;52.03;31.48;;;9.00;99.90;;;;;;5009492;28;20094;-84
2022/11/11 00:13:46;;;;;;;50.53;31.20;;;8.90;99.90;;;;;;5016284;28;20467;-86
2022/11/11 00:16:15;;;;;;;48.55;28.80;;;8.80;99.90;;;;;;5016215;28;20025;-88
2022/11/11 00:25:04;;;;;;;42.42;27.48;;;8.70;99.90;;;;;;5016774;28;20116;-86
2022/11/11 00:27:10;;;;;;;47.42;29.65;;;8.70;99.90;;;;;;5016273;28;20499;-85
2022/11/11 00:29:36;;;;;;;;;;;8.60;99.90;;;;;;5016830;28;20018;-86
2022/11/11 00:37:34;;;;;;;55.97;31.65;;;8.50;99.90;;;;;;5016228;28;20532;-85
2022/11/11 00:40:00;;;;;;;56.47;32.42;;;8.50;99.90;;;;;;5016393;28;20018;-86
2022/11/11 00:42:26;;;;;;;45.05;29.05;;;8.50;99.90;;;;;;4998256;28;20025;-87
2022/11/11 00:44:52;;;;;;;47.42;28.33;;;8.50;99.90;;;;;;5005509;28;20029;-86
2022/11/11 00:53:20;;;;;;;42.97;28.85;;;8.40;99.90;;;;;;4975989;28;20095;-86
2022/11/11 00:55:46;;;;;;;50.67;29.42;;;8.40;99.90;;;;;;4995616;28;20033;-86
2022/11/11 00:58:12;;;;;;;44.20;28.60;;;8.40;99.90;;;;;;4961067;28;20497;-86
2022/11/11 01:00:37;;;;;;;42.67;26.98;;;8.40;99.90;;;;;;4976391;28;20062;-85
2022/11/11 01:03:03;;;;;;;51.63;30.35;;;8.50;99.90;;;;;;4978841;28;20060;-83
2022/11/11 01:05:29;;;;;;;41.05;24.17;;;8.50;99.90;;;;;;4960234;28;20019;-83
2022/11/11 01:07:58;;;;;;;46.78;27.63;;;8.50;99.90;;;;;;4979945;28;20073;-85
2022/11/11 01:13:22;;;;;;;42.95;27.55;;;8.40;99.90;;;;;;4973373;28;20042;-86
2022/11/11 01:15:51;;;;;;;41.63;28.42;;;8.40;99.90;;;;;;4981507;28;20430;-85
2022/11/11 01:18:20;;;;;;;42.50;26.13;;;8.50;99.90;;;;;;4978598;28;20034;-85
2022/11/11 01:20:46;;;;;;;41.90;26.00;;;8.50;99.90;;;;;;4977922;28;20035;-85
2022/11/11 01:23:13;;;;;;;43.38;26.13;;;8.50;99.90;;;;;;4974976;28;20571;-86
2022/11/11 01:25:41;;;;;;;41.00;27.05;;;8.50;99.90;;;;;;4985602;28;20146;-84
2022/11/11 01:28:08;;;;;;;42.80;26.08;;;8.50;99.90;;;;;;5002384;28;20042;-84
2022/11/11 01:30:35;;;;;;;40.65;24.65;;;8.50;99.90;;;;;;5014800;28;20029;-84
2022/11/11 01:33:02;;;;;;;39.70;24.70;;;8.60;99.90;;;;;;5014723;28;20026;-86
2022/11/11 01:35:28;;;;;;;39.83;25.30;;;8.50;99.90;;;;;;5014761;28;20053;-85
2022/11/11 01:37:55;;;;;;;43.03;24.85;;;8.60;99.90;;;;;;5014989;28;20104;-87
2022/11/11 01:40:21;;;;;;;42.88;25.25;;;8.60;99.90;;;;;;4997558;28;20103;-86
2022/11/11 01:42:48;;;;;;;32.92;22.67;;;8.50;99.90;;;;;;5014626;28;20506;-86
2022/11/11 01:45:51;;;;;;;40.17;23.33;;;8.50;99.90;;;;;;5015829;28;20072;-86
2022/11/11 01:51:39;;;;;;;35.47;23.85;;;8.60;99.90;;;;;;5014193;28;20037;-86
2022/11/11 01:54:18;;;;;;;38.08;22.27;;;8.60;99.90;;;;;;5021392;28;20022;-85
2022/11/11 01:56:48;;;;;;;36.50;23.08;;;8.50;99.90;;;;;;5016819;28;20021;-86
2022/11/11 01:59:16;;;;;;;31.73;20.83;;;8.50;99.90;;;;;;5015519;28;20022;-86
2022/11/11 02:01:43;;;;;;;;;;;8.50;99.90;;;;;;5014823;28;20114;-87
2022/11/11 02:06:57;;;;;;;31.55;21.05;;;8.50;99.90;;;;;;5001807;28;20446;-86
2022/11/11 02:09:24;;;;;;;32.10;20.88;;;8.50;99.90;;;;;;5002407;28;20025;-85
2022/11/11 02:14:44;;;;;;;29.80;19.42;;;8.50;99.90;;;;;;5013743;28;20037;-85
2022/11/11 02:17:12;;;;;;;29.58;18.65;;;8.50;99.90;;;;;;4997783;28;20041;-86
2022/11/11 02:19:57;;;;;;;31.65;18.95;;;8.50;99.90;;;;;;5032516;28;20022;-86
2022/11/11 02:22:48;;;;;;;26.25;18.58;;;8.40;99.90;;;;;;4995226;28;20042;-84
2022/11/11 02:25:18;;;;;;;25.83;18.55;;;8.40;99.90;;;;;;4994487;28;20026;-86
2022/11/11 02:27:49;;;;;;;24.70;19.08;;;8.40;99.90;;;;;;4993343;28;20018;-87
2022/11/11 02:30:16;;;;;;;27.48;16.45;;;8.40;99.90;;;;;;4995622;28;20064;-84
2022/11/11 02:32:47;;;;;;;24.75;16.88;;;8.40;99.90;;;;;;5005318;28;20041;-84
2022/11/11 02:35:20;;;;;;;25.80;16.63;;;8.50;99.90;;;;;;4994451;28;20030;-84
2022/11/11 02:37:49;;;;;;;24.45;15.93;;;8.40;99.90;;;;;;4993882;28;20034;-85
2022/11/11 02:40:36;;;;;;;27.05;17.38;;;8.50;99.90;;;;;;4993222;28;20105;-84
2022/11/11 02:43:02;;;;;;;24.52;15.65;;;8.50;99.90;;;;;;4996938;28;20041;-83
2022/11/11 02:45:28;;;;;;;25.23;16.67;;;8.50;99.90;;;;;;4997347;28;20038;-84
2022/11/11 02:47:54;;;;;;;21.48;15.73;;;8.50;99.90;;;;;;4993106;28;20014;-84
2022/11/11 02:50:20;;;;;;;24.60;15.32;;;8.50;99.90;;;;;;4993599;28;20033;-85
2022/11/11 02:52:46;;;;;;;21.23;13.02;;;8.60;99.90;;;;;;4993227;28;20380;-85
2022/11/11 02:55:11;;;;;;;26.67;15.23;;;8.60;99.90;;;;;;4992086;28;20027;-86
2022/11/11 02:57:38;;;;;;;20.95;14.13;;;8.50;99.90;;;;;;4993407;28;20077;-87
2022/11/11 03:00:04;;;;;;;24.67;15.60;;;8.50;99.90;;;;;;4993541;28;20465;-85
2022/11/11 03:02:30;;;;;;;20.83;12.70;;;8.50;99.90;;;;;;4993658;28;20023;-86
2022/11/11 03:04:57;;;;;;;18.13;12.85;;;8.50;99.90;;;;;;4983771;28;20034;-85
2022/11/11 03:07:24;;;;;;;18.70;13.45;;;8.50;99.90;;;;;;4993715;28;20061;-84
2022/11/11 03:09:50;;;;;;;20.42;13.82;;;8.60;99.90;;;;;;4994179;28;20471;-83
2022/11/11 03:12:16;;;;;;;16.13;11.80;;;8.60;99.90;;;;;;4995569;28;20038;-85
2022/11/11 03:14:42;;;;;;;17.23;12.43;;;8.50;99.90;;;;;;4993430;28;20023;-87
2022/11/11 03:21:03;;;;;;;18.17;12.85;;;8.50;99.90;;;;;;4995097;28;20115;-85
2022/11/11 03:22:39;;;;;;;16.80;12.45;;;8.60;99.90;;;;;;5006807;28;20118;-83
2022/11/11 03:27:50;;;;;;;20.70;12.82;;;8.60;99.90;;;;;;5028556;28;20032;-84
2022/11/11 03:30:15;;;;;;;14.25;11.57;;;8.60;99.90;;;;;;5020896;28;20022;-84
2022/11/11 03:32:43;;;;;;;18.05;13.13;;;8.50;99.90;;;;;;5017691;28;20630;-86
2022/11/11 03:35:08;;;;;;;16.65;11.13;;;8.50;99.90;;;;;;4996128;28;20029;-85
2022/11/11 03:40:19;;;;;;;16.80;11.55;;;8.50;99.90;;;;;;5013052;28;20080;-85
2022/11/11 03:42:45;;;;;;;15.00;11.02;;;8.50;99.90;;;;;;5009964;28;20025;-86
2022/11/11 03:45:11;;;;;;;15.45;10.20;;;8.50;99.90;;;;;;5013136;28;20543;-86
2022/11/11 03:47:36;;;;;;;14.32;10.00;;;8.60;99.90;;;;;;5013048;28;20022;-85
2022/11/11 03:50:02;;;;;;;13.20;9.50;;;8.50;99.90;;;;;;5002407;28;20168;-85
2022/11/11 03:52:28;;;;;;;13.15;9.88;;;8.50;99.90;;;;;;5027267;28;20037;-85
2022/11/11 03:54:54;;;;;;;13.57;9.98;;;8.60;99.90;;;;;;5028403;28;20114;-85
2022/11/11 03:57:31;;;;;;;14.50;10.48;;;8.60;99.90;;;;;;5016524;28;20034;-86
2022/11/11 03:59:58;;;;;;;14.73;10.43;;;8.60;99.90;;;;;;5012816;28;20026;-85
2022/11/11 04:10:36;;;;;;;14.60;10.32;;;8.60;99.90;;;;;;5013274;28;20487;-87
2022/11/11 04:16:06;;;;;;;14.25;11.07;;;8.60;99.90;;;;;;5015767;28;20024;-87
2022/11/11 04:26:53;;;;;;;12.35;9.90;;;8.70;99.90;;;;;;5013411;28;20024;-87
2022/11/11 04:29:28;;;;;;;17.77;11.38;;;8.70;99.90;;;;;;5021631;28;20021;-87
2022/11/11 04:34:54;;;;;;;12.75;9.70;;;8.80;99.90;;;;;;5012997;28;20037;-86
2022/11/11 04:37:21;;;;;;;15.18;10.65;;;8.80;99.90;;;;;;5013208;28;20481;-87
2022/11/11 04:42:33;;;;;;;15.55;10.57;;;8.80;99.90;;;;;;5012610;28;20095;-86
2022/11/11 04:48:05;;;;;;;15.27;10.93;;;8.90;99.90;;;;;;5013569;28;20033;-87
2022/11/11 04:50:39;;;;;;;12.45;8.95;;;8.90;99.90;;;;;;5017684;28;20022;-87
2022/11/11 04:53:09;;;;;;;15.48;9.80;;;8.90;99.90;;;;;;5019674;28;20062;-86
2022/11/11 04:58:22;;;;;;;12.80;9.02;;;8.80;99.90;;;;;;5024494;28;20041;-88
2022/11/11 05:00:48;;;;;;;14.10;10.02;;;8.80;99.90;;;;;;5026250;28;20018;-89
2022/11/11 05:03:15;;;;;;;12.48;10.00;;;8.70;99.90;;;;;;5014774;28;20030;-89
2022/11/11 05:08:55;;;;;;;18.75;10.15;;;8.80;99.90;;;;;;5017435;28;20521;-88
2022/11/11 05:11:22;;;;;;;13.02;9.43;;;8.70;99.90;;;;;;5000505;28;20026;-87
2022/11/11 05:22:33;;;;;;;15.60;10.07;;;8.60;99.90;;;;;;5017975;28;20569;-88
2022/11/11 05:27:44;;;;;;;12.35;9.38;;;8.70;99.90;;;;;;5019699;28;20033;-87
2022/11/11 05:30:12;;;;;;;15.07;9.68;;;8.60;99.90;;;;;;5019240;28;20022;-88
2022/11/11 05:32:38;;;;;;;10.93;9.02;;;8.70;99.90;;;;;;5017740;28;20025;-88
2022/11/11 05:35:04;;;;;;;12.13;9.32;;;8.60;99.90;;;;;;5016716;28;20415;-89
2022/11/11 05:37:30;;;;;;;11.80;8.88;;;8.70;99.90;;;;;;5017410;28;20087;-91
2022/11/11 05:39:56;;;;;;;12.40;8.98;;;8.60;99.90;;;;;;5003467;28;20120;-90
2022/11/11 05:42:22;;;;;;;13.52;9.02;;;8.70;99.90;;;;;;5020484;28;20493;-87
2022/11/11 05:44:48;;;;;;;14.18;9.68;;;8.70;99.90;;;;;;5030027;28;20021;-88
2022/11/11 05:47:17;;;;;;;15.25;9.48;;;8.70;99.90;;;;;;5032157;28;20025;-87
2022/11/11 05:49:43;;;;;;;11.90;9.45;;;8.70;99.90;;;;;;5030216;28;20051;-87
2022/11/11 05:52:11;;;;;;;13.82;9.60;;;8.80;99.90;;;;;;5008019;28;20049;-87
2022/11/11 05:54:37;;;;;;;12.95;10.90;;;8.90;99.90;;;;;;5024040;28;20017;-88
2022/11/11 05:57:04;;;;;;;13.70;10.07;;;9.00;99.90;;;;;;5020065;28;20026;-91
2022/11/11 05:59:34;;;;;;;13.27;9.15;;;8.90;99.90;;;;;;5004133;28;20065;-90
2022/11/11 06:02:00;;;;;;;14.23;9.25;;;9.00;99.90;;;;;;5021396;28;20114;-87
2022/11/11 06:04:27;;;;;;;12.30;8.50;;;9.00;99.90;;;;;;5018493;28;20495;-86
2022/11/11 06:06:54;;;;;;;13.13;9.52;;;9.00;99.90;;;;;;4989499;28;20111;-88
2022/11/11 06:09:20;;;;;;;14.15;9.20;;;9.00;99.90;;;;;;5003666;28;20037;-86
2022/11/11 06:11:46;;;;;;;12.40;8.95;;;9.00;99.90;;;;;;5019942;28;20050;-88
2022/11/11 06:14:12;;;;;;;17.42;10.60;;;9.00;99.90;;;;;;5019436;28;20038;-88
2022/11/11 06:16:37;;;;;;;14.57;8.48;;;9.00;99.90;;;;;;5029665;28;20069;-87
2022/11/11 06:19:03;;;;;;;11.82;8.25;;;9.10;99.90;;;;;;5028807;28;20042;-87
2022/11/11 06:21:31;;;;;;;9.55;5.82;;;9.10;99.90;;;;;;5026393;28;20075;-87
2022/11/11 06:24:06;;;;;;;13.10;7.65;;;9.10;99.90;;;;;;5022021;28;20030;-88
2022/11/11 06:26:32;;;;;;;11.13;7.45;;;9.10;99.90;;;;;;5027137;28;20022;-86
2022/11/11 06:28:58;;;;;;;10.48;8.45;;;9.00;99.90;;;;;;5025874;28;20018;-87
2022/11/11 06:31:25;;;;;;;14.52;9.77;;;9.00;99.90;;;;;;5017510;28;20041;-88
2022/11/11 06:33:55;;;;;;;11.60;8.80;;;8.90;99.90;;;;;;5019240;28;20026;-87
2022/11/11 06:36:21;;;;;;;9.38;7.30;;;8.90;99.90;;;;;;4991742;28;20066;-88
2022/11/11 06:38:50;;;;;;;10.60;7.70;;;9.00;99.90;;;;;;4978371;28;20034;-87
2022/11/11 06:41:15;;;;;;;12.05;8.40;;;9.00;99.90;;;;;;5015024;28;20079;-86
2022/11/11 06:43:42;;;;;;;12.35;8.35;;;9.00;99.90;;;;;;4997586;28;20018;-87
2022/11/11 06:46:26;;;;;;;11.47;8.73;;;9.10;99.90;;;;;;4997159;28;20030;-85
2022/11/11 06:48:52;;;;;;;11.55;9.20;;;9.10;99.90;;;;;;4999546;28;20033;-86
2022/11/11 06:51:18;;;;;;;14.68;10.60;;;9.10;99.90;;;;;;4998179;28;20045;-87
2022/11/11 06:53:44;;;;;;;16.83;10.60;;;9.20;99.90;;;;;;5010937;28;20115;-86
2022/11/11 06:56:11;;;;;;;13.10;9.50;;;9.20;99.90;;;;;;5018922;28;20029;-88
2022/11/11 06:58:40;;;;;;;15.67;10.97;;;9.10;99.90;;;;;;5023749;28;20021;-87
2022/11/11 07:01:08;;;;;;;12.27;10.20;;;9.10;99.90;;;;;;5021693;28;20061;-86
2022/11/11 07:03:34;;;;;;;16.88;10.85;;;9.10;99.90;;;;;;4996584;28;20032;-88
2022/11/11 07:06:01;;;;;;;15.27;10.98;;;9.10;99.90;;;;;;5014223;28;20460;-87
2022/11/11 07:08:27;;;;;;;12.00;9.25;;;9.10;99.90;;;;;;5012847;28;20026;-85
2022/11/11 07:10:53;;;;;;;11.52;8.65;;;9.20;99.90;;;;;;5014076;28;20038;-86
2022/11/11 07:13:19;;;;;;;15.45;9.68;;;9.20;99.90;;;;;;5012905;28;20479;-87
2022/11/11 07:15:45;;;;;;;10.57;8.30;;;9.30;99.90;;;;;;5006621;28;20033;-88
2022/11/11 07:18:11;;;;;;;12.15;8.50;;;9.40;99.90;;;;;;5012047;28;20609;-85
2022/11/11 07:20:38;;;;;;;12.80;9.05;;;9.40;99.90;;;;;;4993244;28;20116;-90
2022/11/11 07:23:04;;;;;;;13.82;8.55;;;9.50;99.90;;;;;;4995064;28;20064;-89
2022/11/11 07:25:30;;;;;;;10.88;7.85;;;9.50;99.90;;;;;;4995840;28;20049;-90
2022/11/11 07:27:57;;;;;;;13.10;9.20;;;9.50;99.90;;;;;;5010464;28;20034;-89
2022/11/11 07:30:23;;;;;;;14.52;8.52;;;9.40;99.90;;;;;;5010335;28;20026;-87
2022/11/11 07:32:51;;;;;;;15.55;10.48;;;9.40;99.90;;;;;;4989949;28;20066;-90
2022/11/11 07:35:19;;;;;;;15.98;8.25;;;9.30;99.90;;;;;;4994504;28;20028;-86
2022/11/11 07:37:45;;;;;;;13.93;9.75;;;9.20;99.90;;;;;;4991700;28;20034;-85
2022/11/11 07:40:13;;;;;;;10.82;8.50;;;9.30;99.90;;;;;;5014887;28;20052;-85
2022/11/11 07:42:41;;;;;;;13.45;9.05;;;9.30;99.90;;;;;;4999513;28;20026;-87
2022/11/11 07:45:08;;;;;;;14.38;9.38;;;9.30;99.90;;;;;;5008908;28;20025;-84
2022/11/11 07:47:34;;;;;;;14.93;9.25;;;9.30;99.90;;;;;;4994185;28;20080;-86
2022/11/11 07:50:01;;;;;;;13.57;10.27;;;9.40;99.90;;;;;;5008577;28;20065;-86
2022/11/11 07:52:27;;;;;;;13.70;9.77;;;9.40;99.90;;;;;;5013335;28;20112;-86
2022/11/11 07:54:53;;;;;;;12.23;9.40;;;9.40;99.90;;;;;;5010627;28;20499;-88
2022/11/11 07:57:19;;;;;;;16.95;10.70;;;9.40;99.90;;;;;;5014259;28;20026;-85
2022/11/11 07:59:45;;;;;;;16.10;8.20;;;9.40;99.90;;;;;;5014351;28;20026;-85
2022/11/11 08:02:11;;;;;;;17.25;12.00;;;9.40;99.90;;;;;;5020053;28;20026;-82
2022/11/11 08:04:37;;;;;;;13.10;9.90;;;9.30;99.90;;;;;;5023807;28;20033;-84
2022/11/11 08:07:03;;;;;;;15.00;9.70;;;9.30;99.90;;;;;;5002691;28;20036;-85
2022/11/11 08:09:29;;;;;;;15.02;10.07;;;9.30;99.90;;;;;;5022494;28;20097;-84
2022/11/11 08:14:39;;;;;;;19.33;12.38;;;9.30;99.90;;;;;;5013249;28;20029;-87
2022/11/11 08:17:05;;;;;;;15.23;9.52;;;9.30;99.90;;;;;;5012540;28;20034;-89
2022/11/11 08:19:31;;;;;;;18.58;11.98;;;9.30;99.90;;;;;;4994174;28;20018;-85
2022/11/11 08:21:57;;;;;;;25.95;13.23;;;9.40;99.90;;;;;;4993001;28;20050;-85
2022/11/11 08:24:25;;;;;;;16.45;10.70;;;9.30;99.90;;;;;;5017542;28;20164;-89
2022/11/11 08:26:52;;;;;;;14.32;10.25;;;9.30;99.90;;;;;;4994676;28;20041;-85
2022/11/11 08:29:19;;;;;;;17.80;10.70;;;9.30;99.90;;;;;;5015985;28;20105;-89
2022/11/11 08:31:45;;;;;;;23.95;12.45;;;9.30;99.90;;;;;;4996297;28;20030;-87
2022/11/11 08:34:12;;;;;;;17.58;12.13;;;9.30;99.90;;;;;;5032004;28;20378;-89
2022/11/11 08:36:38;;;;;;;16.97;12.17;;;9.30;99.90;;;;;;5008348;28;20022;-89
2022/11/11 08:39:07;;;;;;;23.65;15.57;;;9.40;99.90;;;;;;5019097;28;20043;-89
2022/11/11 08:41:33;;;;;;;21.90;11.40;;;9.50;99.90;;;;;;5016568;28;20360;-89
2022/11/11 08:43:59;;;;;;;20.85;12.02;;;9.50;99.90;;;;;;5008806;28;20058;-89
2022/11/11 08:46:26;;;;;;;17.88;12.40;;;9.60;99.90;;;;;;5019161;28;20080;-89
2022/11/11 08:48:52;;;;;;;18.73;13.00;;;9.70;99.90;;;;;;5024331;28;20041;-88
2022/11/11 08:51:18;;;;;;;15.88;12.15;;;9.70;99.90;;;;;;5020694;28;20072;-90
2022/11/11 08:53:44;;;;;;;17.65;11.82;;;9.70;99.90;;;;;;5014737;28;20041;-89
2022/11/11 08:56:12;;;;;;;18.00;11.95;;;9.90;99.90;;;;;;5025072;28;20472;-89
2022/11/11 08:58:38;;;;;;;17.85;12.55;;;9.90;99.90;;;;;;5015516;28;20034;-87
2022/11/11 09:01:09;;;;;;;15.50;11.50;;;9.80;99.90;;;;;;5012831;28;20037;-92
2022/11/11 09:03:35;;;;;;;15.00;10.82;;;9.90;99.90;;;;;;5019211;28;20054;-89
2022/11/11 09:06:01;;;;;;;16.45;11.65;;;9.80;99.90;;;;;;5032470;28;20029;-87
2022/11/11 09:08:27;;;;;;;13.15;10.05;;;9.80;99.90;;;;;;5027436;28;20117;-88
2022/11/11 09:10:52;;;;;;;11.98;9.10;;;9.80;99.90;;;;;;5016232;28;20022;-86
2022/11/11 09:13:18;;;;;;;12.85;11.07;;;9.80;99.90;;;;;;5014612;28;20045;-91
2022/11/11 09:15:44;;;;;;;13.43;10.43;;;9.80;99.90;;;;;;5016999;28;20021;-87
2022/11/11 09:18:10;;;;;;;16.38;11.45;;;9.80;99.90;;;;;;4997944;28;20038;-87
2022/11/11 09:20:36;;;;;;;17.30;11.45;;;9.80;99.90;;;;;;5016226;28;20014;-89
2022/11/11 09:23:02;;;;;;;14.07;9.88;;;9.80;99.90;;;;;;5016338;28;20057;-91
2022/11/11 09:25:28;;;;;;;14.77;10.02;;;9.90;99.90;;;;;;5016962;28;20058;-89
2022/11/11 09:27:55;;;;;;;14.82;9.95;;;10.00;99.90;;;;;;5010485;28;20033;-90
2022/11/11 09:30:22;;;;;;;19.63;13.95;;;10.00;99.90;;;;;;5013417;28;20055;-89
2022/11/11 09:32:48;;;;;;;13.10;8.50;;;10.00;99.90;;;;;;5020688;28;20049;-92
2022/11/11 09:35:17;;;;;;;15.65;9.90;;;10.00;99.90;;;;;;5023575;28;20066;-93
2022/11/11 09:37:54;;;;;;;13.68;8.45;;;9.90;99.90;;;;;;4996240;28;20030;-86
2022/11/11 09:40:22;;;;;;;;;;;9.80;99.90;;;;;;5013779;28;20021;-86
2022/11/11 09:42:52;;;;;;;13.30;9.98;;;9.80;99.90;;;;;;5015971;28;19935;-85
2022/11/11 09:45:27;;;;;;;11.35;8.80;;;9.80;99.90;;;;;;5008658;28;20041;-89
2022/11/11 09:47:55;;;;;;;12.15;8.27;;;9.80;99.90;;;;;;5012654;28;20024;-87
2022/11/11 09:50:24;;;;;;;14.43;9.25;;;9.90;99.90;;;;;;5021200;28;20074;-87
2022/11/11 09:52:57;;;;;;;11.88;8.82;;;10.00;99.90;;;;;;5026895;28;20109;-87
2022/11/11 09:55:29;;;;;;;12.55;8.57;;;9.90;99.90;;;;;;4997344;28;20505;-84
2022/11/11 09:58:10;;;;;;;10.05;8.77;;;10.00;99.90;;;;;;5011041;28;20034;-86
2022/11/11 10:00:40;;;;;;;12.38;8.65;;;10.00;99.90;;;;;;4989866;28;20424;-87
2022/11/11 10:03:09;;;;;;;9.65;7.35;;;10.10;99.90;;;;;;4995995;28;20034;-87
2022/11/11 10:06:06;;;;;;;12.88;9.50;;;10.00;99.90;;;;;;5015539;28;20034;-88
2022/11/11 10:08:47;;;;;;;11.13;8.07;;;10.00;99.90;;;;;;5008337;28;20101;-89
2022/11/11 10:11:51;;;;;;;14.27;9.43;;;10.10;99.90;;;;;;4984621;28;20488;-84
2022/11/11 10:14:21;;;;;;;16.92;13.20;;;10.10;99.90;;;;;;5022583;28;20030;-88
2022/11/11 10:17:25;;;;;;;15.52;11.88;;;10.00;99.90;;;;;;5017068;28;20026;-86
2022/11/11 10:20:21;;;;;;;12.80;10.13;;;10.00;99.90;;;;;;5017975;28;20091;-90
2022/11/11 10:22:59;;;;;;;18.42;11.18;;;9.90;99.90;;;;;;5001229;28;20046;-92
2022/11/11 10:25:25;;;;;;;14.63;10.82;;;9.90;99.90;;;;;;5000375;28;20050;-86
2022/11/11 10:27:57;;;;;;;14.63;11.63;;;9.90;99.90;;;;;;4996805;28;20281;-90
2022/11/11 10:30:27;;;;;;;18.25;13.30;;;9.80;99.90;;;;;;5013946;28;20035;-89
2022/11/11 10:33:05;;;;;;;17.60;13.75;;;9.80;99.90;;;;;;4995152;28;20015;-91
2022/11/11 10:35:32;;;;;;;17.00;12.10;;;9.80;99.90;;;;;;4982270;28;20105;-91
2022/11/11 10:38:10;;;;;;;18.60;15.40;;;9.80;99.90;;;;;;4985164;28;20082;-90
2022/11/11 10:40:46;;;;;;;14.68;11.57;;;9.80;99.90;;;;;;4983612;28;20043;-85
2022/11/11 10:43:24;;;;;;;;;;;9.80;99.90;;;;;;4975870;28;20085;-87
2022/11/11 10:46:16;;;;;;;18.05;11.82;;;9.80;99.90;;;;;;4973769;28;19997;-84
2022/11/11 10:48:50;;;;;;;15.68;12.02;;;9.80;99.90;;;;;;4961683;28;20033;-84
2022/11/11 10:51:17;;;;;;;12.77;10.38;;;9.70;99.90;;;;;;4980027;28;20025;-87
2022/11/11 10:53:52;;;;;;;;;;;9.80;99.90;;;;;;4982524;28;20531;-86
2022/11/11 10:56:44;;;;;;;13.15;9.52;;;9.70;99.90;;;;;;4972950;28;20314;-88
2022/11/11 10:59:19;;;;;;;15.05;9.77;;;9.80;99.90;;;;;;4971165;28;20035;-88
2022/11/11 11:02:03;;;;;;;18.13;10.70;;;9.80;99.90;;;;;;4980932;28;20018;-88
2022/11/11 11:04:36;;;;;;;16.98;9.63;;;9.80;99.90;;;;;;4975498;28;20030;-89
2022/11/11 11:07:06;;;;;;;11.65;8.82;;;9.90;99.90;;;;;;4978346;28;20030;-90
2022/11/11 11:09:58;;;;;;;16.67;11.45;;;9.90;99.90;;;;;;4977153;28;20384;-87
2022/11/11 11:12:48;;;;;;;12.52;9.32;;;9.80;99.90;;;;;;4990160;28;20027;-88
2022/11/11 11:15:20;;;;;;;11.80;9.10;;;9.90;99.90;;;;;;4975296;28;20019;-87
2022/11/11 11:17:52;;;;;;;11.77;8.00;;;9.80;99.90;;;;;;4983705;28;20519;-89
2022/11/11 11:20:19;;;;;;;12.20;8.52;;;9.80;99.90;;;;;;4984147;28;20018;-88
2022/11/11 11:22:56;;;;;;;14.73;8.98;;;9.80;99.90;;;;;;5013303;28;20053;-88
2022/11/11 11:25:22;;;;;;;13.13;9.33;;;9.80;99.90;;;;;;5022221;28;20132;-87
2022/11/11 11:27:50;;;;;;;10.77;8.32;;;9.80;99.90;;;;;;5012599;28;20113;-88
2022/11/11 11:30:18;;;;;;;;;;;9.90;99.90;;;;;;5012032;28;20025;-86
2022/11/11 11:32:59;;;;;;;10.13;7.35;;;9.90;99.90;;;;;;5012927;28;19928;-87
2022/11/11 11:35:32;;;;;;;15.90;9.68;;;9.80;99.90;;;;;;4997521;28;20045;-89
2022/11/11 11:37:58;;;;;;;13.80;9.23;;;9.70;99.90;;;;;;5018234;28;20060;-87
2022/11/11 11:40:24;;;;;;;14.27;9.00;;;9.70;99.90;;;;;;5026796;28;20030;-87
2022/11/11 11:42:49;;;;;;;12.90;9.18;;;9.70;99.90;;;;;;4997302;28;20418;-87
2022/11/11 11:45:29;;;;;;;13.80;8.45;;;9.70;99.90;;;;;;5013374;28;20030;-86
2022/11/11 11:48:32;;;;;;;15.68;8.80;;;9.70;99.90;;;;;;5012872;28;20375;-87
2022/11/11 11:51:36;;;;;;;10.02;6.53;;;9.80;99.90;;;;;;4956705;28;20169;-86
2022/11/11 11:54:29;;;;;;;13.15;9.98;;;9.70;99.90;;;;;;5012034;28;20025;-87
2022/11/11 11:57:02;;;;;;;15.38;9.68;;;9.70;99.90;;;;;;5010571;28;20041;-84
2022/11/11 11:59:48;;;;;;;12.10;8.35;;;9.70;99.90;;;;;;5017849;28;20345;-86
2022/11/11 12:02:59;;;;;;;13.77;9.27;;;9.70;99.90;;;;;;5005038;28;20032;-84
2022/11/11 12:05:43;;;;;;;14.07;10.23;;;9.70;99.90;;;;;;5011516;28;20100;-84
2022/11/11 12:08:12;;;;;;;10.75;7.65;;;9.80;99.90;;;;;;5009299;28;20030;-84
2022/11/11 12:10:47;;;;;;;9.68;7.03;;;9.70;99.90;;;;;;5012753;28;20022;-88
2022/11/11 12:13:20;;;;;;;13.85;8.10;;;9.60;99.90;;;;;;5018089;28;20048;-88
2022/11/11 12:16:00;;;;;;;11.98;9.30;;;9.60;99.90;;;;;;5014950;28;20065;-85
2022/11/11 12:18:51;;;;;;;18.90;10.52;;;9.50;99.90;;;;;;5028003;28;20026;-88
2022/11/11 12:21:26;;;;;;;14.13;8.93;;;9.50;99.90;;;;;;5008040;28;20097;-87
2022/11/11 12:24:16;;;;;;;15.40;9.02;;;9.60;99.90;;;;;;5016123;28;20117;-91
2022/11/11 12:27:07;;;;;;;14.73;9.57;;;9.60;99.90;;;;;;5016318;28;20022;-86
2022/11/11 12:30:10;;;;;;;14.35;9.35;;;9.60;99.90;;;;;;5001078;28;20045;-86
2022/11/11 12:33:04;;;;;;;14.00;9.98;;;9.70;99.90;;;;;;5013739;28;20033;-83
2022/11/11 12:35:49;;;;;;;12.75;9.27;;;9.70;99.90;;;;;;5015712;28;20414;-83
2022/11/11 12:38:29;;;;;;;12.65;9.38;;;9.70;99.90;;;;;;5015424;28;20034;-83
2022/11/11 12:41:17;;;;;;;14.30;10.25;;;9.60;99.90;;;;;;5016511;28;20038;-83
2022/11/11 12:43:55;;;;;;;12.10;9.07;;;9.60;99.90;;;;;;5008475;28;20022;-83
2022/11/11 12:46:53;;;;;;;18.25;9.70;;;9.60;99.90;;;;;;5014556;28;20025;-81
2022/11/11 12:49:37;;;;;;;13.55;10.43;;;9.60;99.90;;;;;;5014749;28;20072;-81
2022/11/11 12:52:38;;;;;;;13.20;9.32;;;9.60;99.90;;;;;;5015533;28;20070;-84
2022/11/11 12:55:18;;;;;;;17.63;9.25;;;9.70;99.90;;;;;;5014591;28;20125;-84
2022/11/11 12:58:13;;;;;;;11.80;8.90;;;9.60;99.90;;;;;;5015515;28;20042;-82
2022/11/11 13:01:01;;;;;;;13.60;9.65;;;9.60;99.90;;;;;;4965100;28;20037;-86
2022/11/11 13:03:51;;;;;;;14.35;9.40;;;9.60;99.90;;;;;;5016109;28;20452;-88
2022/11/11 13:06:50;;;;;;;10.23;8.57;;;9.60;99.90;;;;;;5016279;28;20037;-87
2022/11/11 13:09:45;;;;;;;11.32;7.90;;;9.70;99.90;;;;;;5006184;28;20045;-86
2022/11/11 13:12:14;;;;;;;13.23;8.60;;;9.60;99.90;;;;;;4967768;28;20073;-86
2022/11/11 13:15:00;;;;;;;10.57;7.43;;;9.50;99.90;;;;;;5003111;28;20443;-86
2022/11/11 13:17:26;;;;;;;10.40;8.20;;;9.40;99.90;;;;;;5004914;28;20430;-86
2022/11/11 13:20:00;;;;;;;13.95;9.32;;;9.30;99.90;;;;;;5015422;28;20034;-88
2022/11/11 13:22:28;;;;;;;14.00;8.57;;;9.30;99.90;;;;;;5018687;28;20045;-86
2022/11/11 13:24:55;;;;;;;11.93;8.13;;;9.30;99.90;;;;;;5016993;28;20032;-89
2022/11/11 13:27:24;;;;;;;11.88;9.35;;;9.30;99.90;;;;;;5028819;28;20029;-87
2022/11/11 13:30:02;;;;;;;9.95;8.20;;;9.40;99.90;;;;;;5000222;28;20034;-84
2022/11/11 13:32:37;;;;;;;12.20;8.65;;;9.30;99.90;;;;;;5018407;28;20541;-88
2022/11/11 13:35:18;;;;;;;9.23;7.55;;;9.30;99.90;;;;;;5019706;28;20026;-87
2022/11/11 13:37:45;;;;;;;7.93;6.57;;;9.30;99.90;;;;;;4982971;28;20057;-87
2022/11/11 13:40:23;;;;;;;11.37;6.97;;;9.30;99.90;;;;;;5011054;28;20029;-87
2022/11/11 13:42:54;;;;;;;9.32;6.15;;;9.40;99.90;;;;;;5011391;28;20106;-89
2022/11/11 13:45:49;;;;;;;7.85;6.25;;;9.40;99.90;;;;;;5015378;28;20022;-89
2022/11/11 13:48:34;;;;;;;9.68;4.60;;;9.50;99.90;;;;;;5008600;28;20022;-85
2022/11/11 13:51:21;;;;;;;9.98;6.35;;;9.60;99.90;;;;;;5013623;28;20096;-85
2022/11/11 13:53:48;;;;;;;13.57;9.57;;;9.60;99.90;;;;;;5019945;28;20029;-89
2022/11/11 13:56:47;;;;;;;8.90;5.65;;;9.60;99.90;;;;;;5015082;28;20099;-90
2022/11/11 13:59:27;;;;;;;6.85;5.55;;;9.70;99.90;;;;;;4952959;28;20104;-85
2022/11/11 14:02:19;;;;;;;9.55;6.15;;;9.60;99.90;;;;;;5015958;28;20383;-84
2022/11/11 14:05:07;;;;;;;7.45;5.97;;;9.60;99.90;;;;;;4997930;28;20083;-85
2022/11/11 14:07:47;;;;;;;7.60;5.70;;;9.60;99.90;;;;;;4999703;28;20026;-85
2022/11/11 14:10:16;;;;;;;9.38;6.43;;;9.60;99.90;;;;;;4999754;28;20030;-85
2022/11/11 14:12:46;;;;;;;8.48;7.53;;;9.60;99.90;;;;;;5015682;28;20538;-83
2022/11/11 14:15:41;;;;;;;9.05;6.53;;;9.70;99.90;;;;;;5000408;28;20118;-84
2022/11/11 14:18:21;;;;;;;9.48;6.05;;;9.70;99.90;;;;;;5020618;28;20129;-85
2022/11/11 14:20:52;;;;;;;6.68;5.43;;;9.70;99.90;;;;;;5019896;28;20049;-85
2022/11/11 14:23:23;;;;;;;11.52;6.25;;;9.70;99.90;;;;;;5014462;28;20057;-85
2022/11/11 14:25:51;;;;;;;14.48;7.43;;;9.70;99.90;;;;;;5017393;28;20033;-83
2022/11/11 14:28:22;;;;;;;5.05;4.20;;;9.70;99.90;;;;;;5009013;28;20025;-84
2022/11/11 14:30:48;;;;;;;6.05;4.68;;;9.80;99.90;;;;;;5007503;28;20029;-82
2022/11/11 14:33:23;;;;;;;8.55;4.63;;;9.70;99.90;;;;;;5012896;28;20030;-81